createdAt,value
2018-06-22T00:02:57.119Z,99.99
2018-06-22T00:12:52.806Z,99.99
2018-06-22T00:22:46.365Z,99.99
2018-06-22T00:32:45.346Z,99.99
2018-06-22T00:42:44.258Z,99.99
2018-06-22T00:52:42.346Z,99.99
2018-06-22T01:02:37.640Z,99.99
2018-06-22T01:12:34.252Z,99.99
2018-06-22T01:22:33.803Z,99.99
2018-06-22T01:32:31.742Z,99.99
2018-06-22T01:42:28.527Z,99.99
2018-06-22T01:52:22.445Z,99.99
2018-06-22T02:02:21.747Z,99.99
2018-06-22T02:12:19.201Z,99.99
2018-06-22T02:22:16.667Z,99.99
2018-06-22T02:32:15.435Z,99.99
2018-06-22T02:42:11.502Z,99.99
2018-06-22T02:52:09.652Z,99.99
2018-06-22T03:02:07.019Z,99.99
2018-06-22T03:12:03.188Z,99.99
2018-06-22T03:22:01.517Z,99.99
2018-06-22T03:31:58.881Z,99.99
2018-06-22T03:41:56.995Z,99.99
2018-06-22T03:51:54.278Z,99.99
2018-06-22T04:01:52.020Z,99.99
2018-06-22T04:11:51.169Z,99.99
2018-06-22T04:21:49.261Z,99.99
2018-06-22T04:31:45.399Z,99.99
2018-06-22T04:41:42.422Z,99.99
2018-06-22T04:51:41.475Z,99.99
2018-06-22T05:01:38.547Z,99.99
2018-06-22T05:11:34.126Z,99.99
2018-06-22T05:21:32.617Z,99.99
2018-06-22T05:31:30.280Z,99.99
2018-06-22T05:41:26.182Z,99.99
2018-06-22T05:51:23.182Z,99.99
2018-06-22T06:01:18.473Z,99.99
2018-06-22T06:10:59.053Z,99.99
2018-06-22T06:20:57.601Z,99.99
2018-06-22T06:30:55.183Z,99.99
2018-06-22T06:40:52.606Z,99.99
2018-06-22T06:50:51.373Z,99.99
2018-06-22T07:00:48.540Z,99.99
2018-06-22T07:10:45.826Z,99.99
2018-06-22T07:20:43.438Z,99.99
2018-06-22T07:30:42.077Z,99.99
2018-06-22T07:40:37.477Z,99.99
2018-06-22T07:50:33.850Z,99.99
2018-06-22T08:00:30.950Z,99.99
2018-06-22T08:10:27.049Z,99.99
2018-06-22T08:20:24.473Z,99.99
2018-06-22T08:30:21.525Z,99.99
2018-06-22T08:40:17.426Z,99.99
2018-06-22T08:50:15.924Z,99.99
2018-06-22T09:00:12.225Z,99.99
2018-06-22T09:10:07.509Z,99.99
2018-06-22T09:20:04.360Z,99.99
2018-06-22T09:30:03.120Z,99.99
2018-06-22T09:40:00.675Z,99.99
2018-06-22T09:49:57.008Z,99.99
2018-06-22T09:59:52.031Z,99.99
2018-06-22T10:09:49.090Z,98.44
2018-06-22T10:19:46.280Z,95.43
2018-06-22T10:29:41.718Z,91.22
2018-06-22T10:39:40.267Z,89.47
2018-06-22T10:49:36.681Z,89.09
2018-06-22T10:59:36.260Z,87.52
2018-06-22T11:09:31.453Z,85.01
2018-06-22T11:19:29.387Z,87.66
2018-06-22T11:29:27.556Z,84.27
2018-06-22T11:39:22.194Z,80.23
2018-06-22T11:49:19.716Z,79.93
2018-06-22T11:59:15.693Z,82.13
2018-06-22T12:09:03.446Z,77.14
2018-06-22T12:19:02.038Z,76.00
2018-06-22T12:28:57.092Z,72.74
2018-06-22T12:38:47.902Z,73.31
2018-06-22T12:48:47.033Z,71.01
2018-06-22T12:58:41.499Z,82.53
2018-06-22T13:08:35.422Z,83.55
2018-06-22T13:18:31.360Z,77.27
2018-06-22T13:28:29.540Z,81.21
2018-06-22T13:38:17.877Z,80.63
2018-06-22T13:48:07.841Z,74.16
2018-06-22T13:57:59.822Z,76.71
2018-06-22T14:07:54.445Z,79.02
2018-06-22T14:17:48.672Z,76.88
2018-06-22T14:27:43.016Z,74.91
2018-06-22T14:37:37.560Z,79.73
2018-06-22T14:47:30.789Z,78.99
2018-06-22T14:57:20.648Z,81.77
2018-06-22T15:07:03.987Z,77.92
2018-06-22T15:16:58.661Z,84.47
2018-06-22T15:26:54.720Z,83.21
2018-06-22T15:36:51.968Z,77.39
2018-06-22T15:46:47.770Z,67.72
2018-06-22T15:56:41.146Z,80.21
2018-06-22T16:06:33.906Z,68.02
2018-06-22T16:16:29.189Z,68.73
2018-06-22T16:26:26.422Z,66.05
2018-06-22T16:36:21.036Z,72.17
2018-06-22T16:46:05.251Z,71.00
2018-06-22T16:56:01.816Z,69.42
2018-06-22T17:05:56.483Z,67.38
2018-06-22T17:15:38.241Z,69.04
2018-06-22T17:25:25.813Z,67.01
2018-06-22T17:35:12.477Z,65.33
2018-06-22T17:44:53.426Z,67.07
2018-06-22T17:54:44.682Z,67.88
2018-06-22T18:04:41.561Z,79.76
2018-06-22T18:14:35.014Z,72.31
2018-06-22T18:24:28.901Z,77.11
2018-06-22T18:34:22.025Z,74.69
2018-06-22T18:44:14.332Z,81.32
2018-06-22T18:54:05.899Z,82.87
2018-06-22T19:03:57.940Z,75.31
2018-06-22T19:13:48.565Z,74.37
2018-06-22T19:23:41.815Z,77.19
2018-06-22T19:33:33.778Z,76.82
2018-06-22T19:43:25.954Z,78.01
2018-06-22T19:53:14.721Z,77.84
2018-06-22T20:03:09.472Z,77.61
2018-06-22T20:13:02.679Z,79.46
2018-06-22T20:22:56.817Z,82.28
2018-06-22T20:32:50.546Z,85.15
2018-06-22T20:42:37.704Z,87.43
2018-06-22T20:52:31.084Z,90.71
2018-06-22T21:02:23.697Z,94.31
2018-06-22T21:12:26.251Z,94.25
2018-06-22T21:22:02.940Z,94.10
2018-06-22T21:31:54.716Z,94.35
2018-06-22T21:41:49.608Z,91.82
2018-06-22T21:51:45.126Z,90.96
2018-06-22T22:01:39.306Z,88.18
2018-06-22T22:11:36.593Z,85.90
2018-06-22T22:21:33.444Z,85.90
2018-06-22T22:31:29.283Z,92.32
2018-06-22T22:41:23.753Z,96.88
2018-06-22T22:51:18.680Z,95.86
2018-06-22T23:01:16.039Z,96.67
2018-06-22T23:11:10.721Z,94.59
2018-06-22T23:21:08.590Z,90.09
2018-06-22T23:31:04.378Z,94.76
2018-06-22T23:41:00.848Z,95.05
2018-06-22T23:50:57.095Z,96.46
